Time;durP1;ratioP1;P1;durP2;ratioP2;P2;SDS_P1;SDS_P2;PMS_P1;PMS_P2;Temp;Humidity;BMP_temperature;BMP_pressure;BME280_temperature;BME280_humidity;BME280_pressure;Samples;Min_cycle;Max_cycle;Signal;HPM_P1;HPM_P2
2023/04/04 00:01:16;;;;;;;12.30;5.72;;;1.80;99.90;;;;;;4956779;28;20047;-66
2023/04/04 00:03:41;;;;;;;10.68;5.53;;;1.70;99.90;;;;;;4957255;28;20497;-66
2023/04/04 00:06:07;;;;;;;9.68;5.05;;;1.70;99.90;;;;;;4946423;28;20118;-66
2023/04/04 00:08:33;;;;;;;12.07;5.00;;;1.60;99.90;;;;;;4956234;28;20097;-67
2023/04/04 00:10:59;;;;;;;8.85;5.05;;;1.50;99.90;;;;;;4974367;28;20043;-66
2023/04/04 00:13:27;;;;;;;8.88;4.80;;;1.40;99.90;;;;;;4956794;28;20043;-66
2023/04/04 00:15:53;;;;;;;10.38;5.82;;;1.40;99.90;;;;;;4961869;28;20078;-66
2023/04/04 00:18:19;;;;;;;12.45;5.60;;;1.30;99.90;;;;;;4947934;28;20497;-66
2023/04/04 00:20:45;;;;;;;9.15;5.10;;;1.30;99.90;;;;;;4956827;28;20046;-66
2023/04/04 00:23:10;;;;;;;9.98;5.75;;;1.40;99.90;;;;;;4948134;28;20426;-66
2023/04/04 00:25:36;;;;;;;13.35;6.32;;;1.50;99.90;;;;;;4950507;28;20057;-66
2023/04/04 00:28:02;;;;;;;12.07;6.03;;;1.60;99.90;;;;;;4973461;28;20035;-66
2023/04/04 00:30:28;;;;;;;12.50;5.95;;;1.60;99.90;;;;;;4974264;28;20043;-66
2023/04/04 00:32:55;;;;;;;11.15;5.78;;;1.70;99.90;;;;;;4970393;28;20070;-66
2023/04/04 00:35:20;;;;;;;10.18;5.70;;;1.80;99.90;;;;;;4948698;28;20054;-66
2023/04/04 00:37:46;;;;;;;9.68;5.40;;;1.70;99.90;;;;;;4973524;28;20481;-66
2023/04/04 00:40:12;;;;;;;7.47;4.70;;;1.60;99.90;;;;;;4962847;28;20071;-66
2023/04/04 00:42:38;;;;;;;8.38;5.32;;;1.40;99.90;;;;;;4965444;28;20382;-66
2023/04/04 00:45:07;;;;;;;7.75;4.75;;;1.20;99.90;;;;;;4956393;28;20489;-66
2023/04/04 00:47:33;;;;;;;11.73;5.30;;;1.00;99.90;;;;;;4956341;28;20133;-66
2023/04/04 00:49:59;;;;;;;11.35;4.80;;;0.80;99.90;;;;;;4962476;28;20047;-66
2023/04/04 00:52:26;;;;;;;7.30;4.63;;;0.70;99.90;;;;;;4972970;28;20050;-66
2023/04/04 00:54:53;;;;;;;11.02;4.97;;;0.60;99.90;;;;;;4973348;28;20077;-66
2023/04/04 00:57:18;;;;;;;11.10;5.38;;;0.50;99.90;;;;;;4946717;28;20062;-66
2023/04/04 00:59:44;;;;;;;9.18;5.18;;;0.40;99.90;;;;;;4953865;28;20035;-66
2023/04/04 01:02:10;;;;;;;11.20;5.90;;;0.40;99.90;;;;;;4973489;28;20572;-66
2023/04/04 01:04:36;;;;;;;10.50;5.88;;;0.40;99.90;;;;;;4955911;28;20066;-66
2023/04/04 01:07:03;;;;;;;10.90;5.75;;;0.40;99.90;;;;;;4962656;28;20039;-66
2023/04/04 01:09:29;;;;;;;11.68;6.43;;;0.50;99.90;;;;;;4952405;28;20417;-66
2023/04/04 01:11:56;;;;;;;11.38;6.03;;;0.60;99.90;;;;;;4973206;28;20042;-66
2023/04/04 01:14:21;;;;;;;10.75;5.65;;;0.70;99.90;;;;;;4965275;28;20405;-66
2023/04/04 01:16:51;;;;;;;12.88;6.35;;;0.90;99.90;;;;;;4950765;28;20121;-66
2023/04/04 01:19:25;;;;;;;12.07;6.10;;;1.10;99.90;;;;;;4955535;28;20050;-66
2023/04/04 01:21:52;;;;;;;9.63;5.88;;;1.20;99.90;;;;;;4949513;28;20043;-66
2023/04/04 01:24:20;;;;;;;11.65;5.72;;;1.20;99.90;;;;;;4970152;28;20042;-66
2023/04/04 01:26:46;;;;;;;11.00;5.78;;;1.20;99.90;;;;;;4955410;28;20405;-66
2023/04/04 01:29:11;;;;;;;12.98;6.20;;;1.10;99.90;;;;;;4972894;28;20035;-66
2023/04/04 01:31:46;;;;;;;10.00;5.60;;;1.20;99.90;;;;;;4958155;28;20051;-66
2023/04/04 01:34:31;;;;;;;8.45;5.13;;;1.20;99.90;;;;;;4972353;28;20606;-66
2023/04/04 01:37:02;;;;;;;9.98;5.05;;;1.00;99.90;;;;;;4972869;28;20049;-66
2023/04/04 01:39:33;;;;;;;12.68;5.60;;;0.80;99.90;;;;;;4967756;28;20604;-66
2023/04/04 01:42:01;;;;;;;9.27;5.18;;;0.70;99.90;;;;;;4947069;28;20047;-66
2023/04/04 01:44:27;;;;;;;11.98;5.82;;;0.60;99.90;;;;;;4972170;28;20122;-66
2023/04/04 01:46:54;;;;;;;9.93;5.35;;;0.50;99.90;;;;;;4972792;28;20046;-67
2023/04/04 01:49:20;;;;;;;11.15;5.28;;;0.50;99.90;;;;;;4968237;28;20046;-66
2023/04/04 01:51:45;;;;;;;9.43;5.28;;;0.40;99.90;;;;;;4972324;28;20047;-66
2023/04/04 01:54:11;;;;;;;9.90;5.30;;;0.30;99.90;;;;;;4943822;28;20055;-66
2023/04/04 01:56:37;;;;;;;9.40;5.40;;;0.20;99.90;;;;;;4955104;28;20070;-66
2023/04/04 01:59:02;;;;;;;10.30;5.72;;;0.20;99.90;;;;;;4972323;28;20105;-67
2023/04/04 02:01:28;;;;;;;10.85;6.22;;;0.30;99.90;;;;;;4962711;28;20050;-66
2023/04/04 02:03:54;;;;;;;11.93;5.93;;;0.60;99.90;;;;;;4949803;28;20043;-66
2023/04/04 02:06:19;;;;;;;12.35;6.32;;;0.70;99.90;;;;;;4972189;28;20401;-66
2023/04/04 02:08:45;;;;;;;12.57;5.80;;;0.70;99.90;;;;;;4968407;28;20050;-66
2023/04/04 02:11:11;;;;;;;12.93;5.57;;;0.60;99.90;;;;;;4947587;28;20039;-66
2023/04/04 02:13:40;;;;;;;14.98;6.13;;;0.50;99.90;;;;;;4938683;28;20070;-66
2023/04/04 02:16:05;;;;;;;14.10;6.43;;;0.30;99.90;;;;;;4954727;28;20493;-66
2023/04/04 02:18:32;;;;;;;13.40;6.38;;;0.30;99.90;;;;;;4959819;28;20051;-66
2023/04/04 02:20:58;;;;;;;10.43;5.80;;;0.40;99.90;;;;;;4954456;28;20042;-66
2023/04/04 02:23:26;;;;;;;12.48;5.80;;;0.30;99.90;;;;;;4954494;28;20057;-66
2023/04/04 02:25:52;;;;;;;12.88;6.00;;;0.20;99.90;;;;;;4913552;28;20075;-66
2023/04/04 02:28:18;;;;;;;9.35;5.95;;;0.20;99.90;;;;;;4937934;28;20075;-66
2023/04/04 02:30:43;;;;;;;11.27;6.10;;;0.30;99.90;;;;;;4971672;28;20051;-66
2023/04/04 02:33:09;;;;;;;13.43;6.05;;;0.50;99.90;;;;;;4971953;28;20046;-66
2023/04/04 02:35:34;;;;;;;11.15;5.75;;;0.60;99.90;;;;;;4958932;28;20074;-66
2023/04/04 02:38:00;;;;;;;11.38;6.30;;;0.60;99.90;;;;;;4951533;28;20094;-66
2023/04/04 02:40:26;;;;;;;10.05;5.60;;;0.50;99.90;;;;;;4971901;28;20046;-66
2023/04/04 02:42:51;;;;;;;10.32;5.47;;;0.30;99.90;;;;;;4971943;28;20046;-66
2023/04/04 02:45:17;;;;;;;9.70;5.82;;;0.10;99.90;;;;;;4965142;28;20043;-66
2023/04/04 02:47:51;;;;;;;10.40;5.78;;;0.00;99.90;;;;;;4948089;28;20054;-66
2023/04/04 02:50:17;;;;;;;10.18;5.90;;;-0.10;99.90;;;;;;4954372;28;20509;-66
2023/04/04 02:52:43;;;;;;;10.43;5.50;;;-0.10;99.90;;;;;;4965433;28;20054;-66
2023/04/04 02:55:09;;;;;;;13.05;5.68;;;-0.10;99.90;;;;;;4941412;28;20039;-66
2023/04/04 02:57:35;;;;;;;8.25;5.05;;;-0.10;99.90;;;;;;4954622;28;20842;-66
2023/04/04 03:00:02;;;;;;;10.40;6.30;;;-0.10;99.90;;;;;;4972493;28;20102;-66
2023/04/04 03:02:28;;;;;;;12.15;5.82;;;0.00;99.90;;;;;;4968487;28;20042;-66
2023/04/04 03:04:54;;;;;;;10.50;5.85;;;0.10;99.90;;;;;;4972249;28;20043;-66
2023/04/04 03:07:21;;;;;;;8.35;5.40;;;0.10;99.90;;;;;;4954753;28;20034;-66
2023/04/04 03:09:47;;;;;;;10.50;5.55;;;0.10;99.90;;;;;;4964041;28;20097;-66
2023/04/04 03:12:13;;;;;;;10.55;6.03;;;0.00;99.90;;;;;;4971589;28;20046;-66
2023/04/04 03:14:39;;;;;;;11.05;5.35;;;0.00;99.90;;;;;;4955264;28;20045;-66
2023/04/04 03:17:05;;;;;;;8.13;4.55;;;0.00;99.90;;;;;;4959387;28;20043;-66
2023/04/04 03:19:31;;;;;;;9.25;5.03;;;-0.10;99.90;;;;;;4968795;28;20054;-66
2023/04/04 03:21:56;;;;;;;11.70;5.10;;;-0.30;99.90;;;;;;4972272;28;20549;-66
2023/04/04 03:24:22;;;;;;;8.77;4.80;;;-0.40;99.90;;;;;;4972151;28;20039;-66
2023/04/04 03:26:48;;;;;;;8.98;5.15;;;-0.50;99.90;;;;;;4967553;28;20050;-66
2023/04/04 03:29:14;;;;;;;7.45;4.80;;;-0.60;99.90;;;;;;4974335;28;20047;-66
2023/04/04 03:31:40;;;;;;;8.48;4.57;;;-0.70;99.90;;;;;;4984143;23;20047;-65
2023/04/04 03:34:06;;;;;;;9.93;5.15;;;-0.80;99.90;;;;;;4942912;28;20098;-66
2023/04/04 03:36:31;;;;;;;8.05;4.95;;;-0.80;99.90;;;;;;4961942;28;20043;-66
2023/04/04 03:38:57;;;;;;;9.15;4.75;;;-0.90;99.90;;;;;;4956292;28;20035;-66
2023/04/04 03:41:22;;;;;;;8.60;5.38;;;-0.90;99.90;;;;;;4949373;28;20043;-66
2023/04/04 03:43:48;;;;;;;9.35;5.30;;;-0.90;99.90;;;;;;4967681;28;20026;-66
2023/04/04 03:46:14;;;;;;;12.52;4.90;;;-0.90;99.90;;;;;;4958053;28;20374;-66
2023/04/04 03:48:40;;;;;;;9.85;4.90;;;-0.90;99.90;;;;;;4952112;28;20591;-66
2023/04/04 03:51:06;;;;;;;7.97;4.70;;;-0.90;99.90;;;;;;4966449;28;20124;-66
2023/04/04 03:53:34;;;;;;;9.23;4.85;;;-0.90;99.90;;;;;;4967696;28;20038;-66
2023/04/04 03:56:00;;;;;;;7.75;4.75;;;-1.00;99.90;;;;;;4972534;28;20130;-66
2023/04/04 03:58:27;;;;;;;10.15;5.30;;;-0.90;99.90;;;;;;4956376;28;20133;-66
2023/04/04 04:00:53;;;;;;;9.90;4.72;;;-1.00;99.90;;;;;;4951625;28;20035;-66
2023/04/04 04:03:20;;;;;;;9.40;5.13;;;-1.00;99.90;;;;;;4956097;28;20547;-66
2023/04/04 04:05:46;;;;;;;8.48;4.65;;;-1.00;99.90;;;;;;4975296;28;20051;-66
2023/04/04 04:08:12;;;;;;;10.88;5.70;;;-0.90;99.90;;;;;;4947884;28;20055;-66
2023/04/04 04:10:38;;;;;;;9.65;5.03;;;-0.90;99.90;;;;;;4956266;28;20405;-66
2023/04/04 04:13:03;;;;;;;8.82;4.95;;;-0.90;99.90;;;;;;4975122;28;20050;-66
2023/04/04 04:15:29;;;;;;;9.93;4.90;;;-1.00;99.90;;;;;;4975198;28;20046;-66
2023/04/04 04:17:55;;;;;;;11.70;5.15;;;-0.90;99.90;;;;;;4966303;28;20413;-66
2023/04/04 04:20:21;;;;;;;9.05;5.30;;;-0.90;99.90;;;;;;4971777;28;20506;-63
2023/04/04 04:22:47;;;;;;;8.23;4.88;;;-0.90;99.90;;;;;;4974878;28;20437;-64
2023/04/04 04:25:14;;;;;;;8.75;4.95;;;-0.90;99.90;;;;;;4965698;28;20094;-64
2023/04/04 04:27:40;;;;;;;14.07;4.93;;;-0.90;99.90;;;;;;4950121;28;20098;-64
2023/04/04 04:30:06;;;;;;;8.80;5.03;;;-0.90;99.90;;;;;;4988033;28;20042;-64
2023/04/04 04:32:32;;;;;;;11.05;5.53;;;-0.90;99.90;;;;;;4976552;28;20440;-63
2023/04/04 04:34:57;;;;;;;10.75;5.28;;;-0.90;99.90;;;;;;4965747;28;20066;-66
2023/04/04 04:37:25;;;;;;;9.70;5.95;;;-0.80;99.90;;;;;;4981374;28;20046;-66
2023/04/04 04:39:51;;;;;;;11.68;5.10;;;-0.80;99.90;;;;;;4957393;28;20485;-66
2023/04/04 04:42:17;;;;;;;11.65;5.15;;;-0.80;99.90;;;;;;4965581;28;20126;-66
2023/04/04 04:44:42;;;;;;;10.45;5.30;;;-0.70;99.90;;;;;;4947376;28;20031;-66
2023/04/04 04:47:08;;;;;;;10.48;5.65;;;-0.80;99.90;;;;;;4974466;28;20074;-66
2023/04/04 04:49:34;;;;;;;10.25;5.50;;;-0.80;99.90;;;;;;4975580;28;20077;-66
2023/04/04 04:52:00;;;;;;;9.27;5.32;;;-0.80;99.90;;;;;;4976472;28;20092;-67
2023/04/04 04:54:25;;;;;;;11.32;5.75;;;-0.80;99.90;;;;;;4965752;28;20089;-67
2023/04/04 04:56:51;;;;;;;9.68;5.22;;;-0.80;99.90;;;;;;4952316;28;20057;-67
2023/04/04 04:59:16;;;;;;;12.02;5.60;;;-0.80;99.90;;;;;;4941202;28;20039;-67
2023/04/04 05:01:42;;;;;;;9.15;4.95;;;-0.80;99.90;;;;;;4946964;28;20039;-67
2023/04/04 05:04:07;;;;;;;8.73;4.65;;;-0.90;99.90;;;;;;4970660;28;20047;-66
2023/04/04 05:06:33;;;;;;;10.80;5.40;;;-0.90;99.90;;;;;;4974974;28;20035;-66
2023/04/04 05:08:59;;;;;;;8.52;5.20;;;-0.90;99.90;;;;;;4954999;28;20569;-66
2023/04/04 05:11:30;;;;;;;9.35;5.03;;;-0.90;99.90;;;;;;4943695;28;20054;-66
2023/04/04 05:13:56;;;;;;;7.90;4.93;;;-0.90;99.90;;;;;;4944775;28;20035;-63
2023/04/04 05:16:22;;;;;;;11.52;5.28;;;-0.90;99.90;;;;;;4966458;28;20050;-66
2023/04/04 05:18:47;;;;;;;8.95;4.70;;;-1.00;99.90;;;;;;4967404;28;20038;-66
2023/04/04 05:21:13;;;;;;;8.15;4.65;;;-1.10;99.90;;;;;;4946146;28;20043;-67
2023/04/04 05:23:38;;;;;;;8.68;5.47;;;-1.10;99.90;;;;;;4943632;28;20054;-67
2023/04/04 05:26:04;;;;;;;9.85;5.38;;;-1.10;99.90;;;;;;4962740;28;20038;-66
2023/04/04 05:28:30;;;;;;;13.75;5.40;;;-1.10;99.90;;;;;;4946307;28;20492;-65
2023/04/04 05:30:55;;;;;;;8.50;4.38;;;-1.00;99.90;;;;;;4960874;28;20042;-66
2023/04/04 05:33:22;;;;;;;9.85;5.13;;;-1.00;99.90;;;;;;4966608;28;20039;-66
2023/04/04 05:35:47;;;;;;;8.88;5.07;;;-0.90;99.90;;;;;;4956003;28;20039;-68
2023/04/04 05:38:13;;;;;;;9.05;5.10;;;-0.90;99.90;;;;;;4973050;28;20437;-66
2023/04/04 05:40:39;;;;;;;8.38;4.90;;;-0.80;99.90;;;;;;4969125;28;20481;-66
2023/04/04 05:43:05;;;;;;;11.07;5.10;;;-0.80;99.90;;;;;;4968193;28;20069;-66
2023/04/04 05:45:31;;;;;;;10.80;5.05;;;-0.70;99.90;;;;;;4945019;28;20039;-66
2023/04/04 05:47:56;;;;;;;10.90;5.32;;;-0.60;99.90;;;;;;4942636;28;20049;-66
2023/04/04 05:50:22;;;;;;;9.90;5.53;;;-0.50;99.90;;;;;;4945772;28;20053;-67
2023/04/04 05:52:47;;;;;;;12.20;5.50;;;-0.40;99.90;;;;;;4971137;28;20074;-67
2023/04/04 05:55:13;;;;;;;9.82;4.78;;;-0.30;99.90;;;;;;4936891;29;20066;-67
2023/04/04 05:57:49;;;;;;;12.48;5.45;;;-0.30;99.90;;;;;;4959666;28;20396;-66
2023/04/04 06:00:16;;;;;;;9.88;5.10;;;-0.20;99.90;;;;;;4957360;28;20142;-66
2023/04/04 06:02:41;;;;;;;8.07;5.07;;;-0.10;99.90;;;;;;4968602;28;20039;-65
2023/04/04 06:05:07;;;;;;;11.55;5.40;;;0.00;99.90;;;;;;4970871;28;20117;-66
2023/04/04 06:07:33;;;;;;;8.57;4.93;;;0.10;99.90;;;;;;4958440;28;20039;-66
2023/04/04 06:09:59;;;;;;;10.80;5.57;;;0.20;99.90;;;;;;4968699;28;20039;-66
2023/04/04 06:12:24;;;;;;;10.60;5.80;;;0.20;99.90;;;;;;4954683;28;20054;-66
2023/04/04 06:14:50;;;;;;;11.48;5.80;;;0.30;99.90;;;;;;4973192;28;20046;-66
2023/04/04 06:17:15;;;;;;;10.07;5.60;;;0.40;99.90;;;;;;4956275;28;20527;-66
2023/04/04 06:19:41;;;;;;;17.20;7.03;;;0.50;99.90;;;;;;4947084;28;20042;-66
2023/04/04 06:22:06;;;;;;;8.77;5.72;;;0.60;99.90;;;;;;4972521;28;20088;-66
2023/04/04 06:24:32;;;;;;;10.77;5.50;;;0.70;99.90;;;;;;4965610;28;20042;-66
2023/04/04 06:26:57;;;;;;;11.35;6.10;;;0.70;99.90;;;;;;4960213;28;20061;-66
2023/04/04 06:29:25;;;;;;;16.05;6.10;;;0.80;99.90;;;;;;4958149;28;20191;-66
2023/04/04 06:31:53;;;;;;;9.98;5.82;;;0.80;99.90;;;;;;4972124;28;20133;-67
2023/04/04 06:34:20;;;;;;;10.18;5.28;;;0.90;99.90;;;;;;4955811;28;20041;-66
2023/04/04 06:36:46;;;;;;;8.43;5.28;;;1.00;99.90;;;;;;4961232;28;20047;-66
2023/04/04 06:39:11;;;;;;;18.98;5.97;;;1.00;99.90;;;;;;4968104;28;20065;-63
2023/04/04 06:41:37;;;;;;;12.52;5.65;;;1.10;99.90;;;;;;4972579;28;20405;-62
2023/04/04 06:44:02;;;;;;;12.32;5.80;;;1.20;99.90;;;;;;4968968;28;20042;-63
2023/04/04 06:46:30;;;;;;;12.30;5.55;;;1.30;99.90;;;;;;4961639;28;20094;-63
2023/04/04 06:48:56;;;;;;;9.30;5.53;;;1.40;99.90;;;;;;4971880;28;20390;-62
2023/04/04 06:51:22;;;;;;;6.88;4.82;;;1.40;99.90;;;;;;4966660;28;20078;-63
2023/04/04 06:53:48;;;;;;;12.02;5.55;;;1.40;99.90;;;;;;4965714;28;20141;-63
2023/04/04 06:56:14;;;;;;;8.60;5.32;;;1.50;99.90;;;;;;4972499;28;20043;-62
2023/04/04 06:58:39;;;;;;;23.95;5.40;;;1.50;99.90;;;;;;4968837;28;20042;-62
2023/04/04 07:01:05;;;;;;;9.77;5.10;;;1.60;99.90;;;;;;4961070;28;20117;-62
2023/04/04 07:03:30;;;;;;;9.85;5.00;;;1.60;99.90;;;;;;4960208;28;20037;-62
2023/04/04 07:05:56;;;;;;;8.00;4.90;;;1.70;99.90;;;;;;4967222;28;20030;-62
2023/04/04 07:08:21;;;;;;;9.02;4.50;;;1.80;99.90;;;;;;4972274;28;20490;-63
2023/04/04 07:10:47;;;;;;;9.00;5.10;;;1.90;99.90;;;;;;4961424;28;20130;-63
2023/04/04 07:13:13;;;;;;;7.40;5.13;;;2.00;99.90;;;;;;4967894;28;20101;-62
2023/04/04 07:15:38;;;;;;;9.95;5.43;;;2.10;99.90;;;;;;4976216;28;20126;-62
2023/04/04 07:18:04;;;;;;;14.63;5.82;;;2.20;99.90;;;;;;4972545;28;20035;-62
2023/04/04 07:20:31;;;;;;;11.00;4.97;;;2.20;99.90;;;;;;4963811;28;20039;-62
2023/04/04 07:22:56;;;;;;;11.15;4.60;;;2.30;99.90;;;;;;4963165;28;20110;-62
2023/04/04 07:25:22;;;;;;;12.23;5.45;;;2.50;99.90;;;;;;4969333;28;20126;-62
2023/04/04 07:27:47;;;;;;;9.90;5.15;;;2.50;99.90;;;;;;4975680;28;20038;-61
2023/04/04 07:30:13;;;;;;;12.73;4.85;;;2.60;99.90;;;;;;4974674;28;20050;-65
2023/04/04 07:32:39;;;;;;;10.23;4.88;;;2.70;99.90;;;;;;4962161;28;20039;-65
2023/04/04 07:35:06;;;;;;;12.93;4.72;;;2.80;99.90;;;;;;4964744;28;20047;-60
2023/04/04 07:37:32;;;;;;;9.95;4.57;;;2.90;99.90;;;;;;4944155;28;20121;-64
2023/04/04 07:39:58;;;;;;;11.77;4.72;;;3.00;99.90;;;;;;4975255;28;20035;-64
2023/04/04 07:42:24;;;;;;;12.68;4.60;;;3.10;99.90;;;;;;4971518;28;20043;-64
2023/04/04 07:44:50;;;;;;;7.30;4.32;;;3.20;99.90;;;;;;4969294;28;20035;-64
2023/04/04 07:47:20;;;;;;;7.40;4.00;;;3.20;99.90;;;;;;4957754;28;20054;-64
2023/04/04 07:49:45;;;;;;;8.20;4.30;;;3.30;99.90;;;;;;4975481;28;20134;-64
2023/04/04 07:52:11;;;;;;;12.70;4.90;;;3.30;99.90;;;;;;4967359;28;20125;-64
2023/04/04 07:54:39;;;;;;;9.57;4.50;;;3.40;99.90;;;;;;4970421;28;20046;-64
2023/04/04 07:57:04;;;;;;;9.23;3.95;;;3.50;99.90;;;;;;4974779;28;20109;-64
2023/04/04 07:59:33;;;;;;;7.47;3.80;;;3.50;99.90;;;;;;4969300;28;20030;-64
2023/04/04 08:01:58;;;;;;;12.10;3.67;;;3.60;99.90;;;;;;4966594;28;20041;-64
2023/04/04 08:04:24;;;;;;;7.85;3.83;;;3.70;99.90;;;;;;4974242;28;20046;-64
2023/04/04 08:06:50;;;;;;;10.25;3.90;;;3.80;99.90;;;;;;4942728;28;20050;-65
2023/04/04 08:09:16;;;;;;;8.35;3.50;;;3.80;99.90;;;;;;4957451;28;20051;-64
2023/04/04 08:11:42;;;;;;;7.47;3.30;;;3.90;99.90;;;;;;4973971;28;20034;-64
2023/04/04 08:14:10;;;;;;;5.60;3.15;;;3.90;99.90;;;;;;4970687;28;20070;-64
2023/04/04 08:16:37;;;;;;;7.15;3.72;;;4.00;99.90;;;;;;4953724;28;20050;-63
2023/04/04 08:19:03;;;;;;;13.10;3.85;;;4.00;99.90;;;;;;4964468;28;20500;-63
2023/04/04 08:21:28;;;;;;;8.32;3.13;;;4.10;99.90;;;;;;4973537;28;20565;-63
2023/04/04 08:23:54;;;;;;;10.85;3.78;;;4.10;99.90;;;;;;4974179;28;20166;-63
2023/04/04 08:26:20;;;;;;;10.85;3.35;;;4.20;99.90;;;;;;4971344;28;20035;-63
2023/04/04 08:28:46;;;;;;;6.65;3.10;;;4.30;99.90;;;;;;4965789;28;20043;-63
2023/04/04 08:31:12;;;;;;;6.25;3.22;;;4.40;99.90;;;;;;4966945;28;20043;-63
2023/04/04 08:33:38;;;;;;;6.18;3.33;;;4.50;99.90;;;;;;4966043;28;20054;-64
2023/04/04 08:36:04;;;;;;;11.65;3.50;;;4.60;99.90;;;;;;4956539;28;20046;-64
2023/04/04 08:38:29;;;;;;;8.23;3.33;;;4.60;99.90;;;;;;4972833;28;20121;-64
2023/04/04 08:40:55;;;;;;;9.40;3.42;;;4.70;99.90;;;;;;4974327;28;20101;-64
2023/04/04 08:43:23;;;;;;;7.15;3.30;;;4.80;99.90;;;;;;4964073;28;20080;-64
2023/04/04 08:45:52;;;;;;;6.03;3.50;;;5.00;99.90;;;;;;4973804;28;20034;-64
2023/04/04 08:48:20;;;;;;;8.82;3.30;;;5.10;99.90;;;;;;4974299;28;20148;-64
2023/04/04 08:50:46;;;;;;;7.47;3.50;;;5.20;99.90;;;;;;4968888;28;20437;-64
2023/04/04 08:53:14;;;;;;;7.15;3.25;;;5.30;99.90;;;;;;4962349;28;20051;-64
2023/04/04 08:55:41;;;;;;;7.95;3.45;;;5.50;99.90;;;;;;4956848;28;20035;-64
2023/04/04 08:58:07;;;;;;;8.85;3.30;;;5.60;99.90;;;;;;4974080;28;20046;-64
2023/04/04 09:00:33;;;;;;;9.77;3.88;;;5.70;99.90;;;;;;4955991;28;20091;-64
2023/04/04 09:03:14;;;;;;;8.48;3.80;;;5.80;99.90;;;;;;4970222;28;20035;-64
2023/04/04 09:05:40;;;;;;;6.50;3.42;;;5.90;99.90;;;;;;4955014;29;20054;-64
2023/04/04 09:08:07;;;;;;;9.98;3.22;;;6.00;99.90;;;;;;4952474;28;20509;-64
2023/04/04 09:10:34;;;;;;;8.45;3.75;;;6.10;99.90;;;;;;4973087;28;20520;-64
2023/04/04 09:13:02;;;;;;;11.10;3.53;;;6.10;99.90;;;;;;4973648;28;20038;-64
2023/04/04 09:15:28;;;;;;;6.85;3.35;;;6.20;99.90;;;;;;4952130;28;20055;-63
2023/04/04 09:17:54;;;;;;;5.47;3.10;;;6.20;99.90;;;;;;4967939;28;20035;-63
2023/04/04 09:20:39;;;;;;;6.45;3.10;;;6.20;99.90;;;;;;4956323;28;20114;-64
2023/04/04 09:23:07;;;;;;;8.77;3.60;;;6.20;99.90;;;;;;4969303;28;20042;-64
2023/04/04 09:25:34;;;;;;;7.78;3.30;;;6.20;99.90;;;;;;4965485;28;20099;-63
2023/04/04 09:28:03;;;;;;;9.20;3.38;;;6.30;99.90;;;;;;4973213;28;20047;-64
2023/04/04 09:30:29;;;;;;;8.63;3.13;;;6.30;99.90;;;;;;4984877;23;20046;-64
2023/04/04 09:32:56;;;;;;;5.75;3.17;;;6.30;99.90;;;;;;4978651;28;20053;-64
2023/04/04 09:35:22;;;;;;;6.50;2.70;;;6.40;99.90;;;;;;4969295;28;20476;-64
2023/04/04 09:37:48;;;;;;;8.07;3.03;;;6.30;99.90;;;;;;4991315;28;20027;-64
2023/04/04 09:40:14;;;;;;;9.65;2.70;;;6.40;99.90;;;;;;4975355;28;20089;-64
2023/04/04 09:42:40;;;;;;;5.72;2.90;;;6.40;99.90;;;;;;4981552;28;20030;-64
2023/04/04 09:45:08;;;;;;;5.65;2.60;;;6.50;99.90;;;;;;4983495;28;20038;-64
2023/04/04 09:47:41;;;;;;;6.68;2.97;;;6.50;99.90;;;;;;4992041;28;20101;-64
2023/04/04 09:50:07;;;;;;;5.88;2.60;;;6.60;99.80;;;;;;4992646;28;20042;-64
2023/04/04 09:52:34;;;;;;;3.80;1.95;;;6.60;99.90;;;;;;4980838;28;20166;-64
2023/04/04 09:55:01;;;;;;;4.25;1.90;;;6.60;99.90;;;;;;4984308;28;20096;-64
2023/04/04 09:57:29;;;;;;;6.18;2.70;;;6.70;99.70;;;;;;4992182;28;20035;-64
2023/04/04 10:00:07;;;;;;;7.05;2.35;;;6.70;99.90;;;;;;4989941;28;20261;-64
2023/04/04 10:02:35;;;;;;;8.68;2.90;;;6.70;96.80;;;;;;4980835;28;20038;-64
2023/04/04 10:05:02;;;;;;;7.90;2.55;;;6.70;99.50;;;;;;4991904;28;20045;-64
2023/04/04 10:07:29;;;;;;;4.68;2.60;;;6.70;99.80;;;;;;4974733;28;20046;-64
2023/04/04 10:09:55;;;;;;;5.45;2.65;;;6.70;99.10;;;;;;4977837;28;20038;-65
2023/04/04 10:12:24;;;;;;;4.57;1.88;;;6.70;99.70;;;;;;4973307;28;20050;-64
2023/04/04 10:15:00;;;;;;;4.65;2.38;;;6.90;97.70;;;;;;4975063;28;20085;-64
2023/04/04 10:17:39;;;;;;;9.85;2.90;;;6.90;97.40;;;;;;4987887;28;20042;-64
2023/04/04 10:20:07;;;;;;;5.00;2.67;;;6.90;97.20;;;;;;4991275;28;20108;-63
2023/04/04 10:22:35;;;;;;;5.85;3.15;;;6.90;98.80;;;;;;4984510;28;20118;-64
2023/04/04 10:25:01;;;;;;;7.72;3.75;;;7.00;98.30;;;;;;4987429;28;20043;-64
2023/04/04 10:27:27;;;;;;;6.88;3.40;;;7.10;98.50;;;;;;4981211;28;20096;-64
2023/04/04 10:29:52;;;;;;;9.98;3.40;;;7.20;98.60;;;;;;4991646;28;20117;-64
2023/04/04 10:32:51;;;;;;;7.72;3.30;;;7.30;98.00;;;;;;4991855;28;20201;-65
2023/04/04 10:35:21;;;;;;;5.45;2.97;;;7.50;97.90;;;;;;4965737;28;20093;-64
2023/04/04 10:37:56;;;;;;;5.22;2.95;;;7.60;99.20;;;;;;4985858;28;20026;-63
2023/04/04 10:40:26;;;;;;;4.63;2.83;;;7.70;96.90;;;;;;4991612;28;20054;-64
2023/04/04 10:42:54;;;;;;;5.00;3.03;;;7.70;97.30;;;;;;4960508;28;20038;-63
2023/04/04 10:45:20;;;;;;;7.82;2.97;;;7.70;98.10;;;;;;4989698;28;20057;-63
2023/04/04 10:47:47;;;;;;;5.25;2.80;;;7.70;98.60;;;;;;4991813;28;20398;-63
2023/04/04 10:50:12;;;;;;;5.40;2.80;;;7.80;98.80;;;;;;4989785;28;20819;-64
2023/04/04 10:52:41;;;;;;;8.60;3.88;;;7.80;97.90;;;;;;4993702;28;20038;-64
2023/04/04 10:55:09;;;;;;;8.20;3.47;;;8.00;97.00;;;;;;4995167;28;20042;-64
2023/04/04 10:57:42;;;;;;;7.25;3.30;;;8.10;97.60;;;;;;4995857;28;20141;-64
2023/04/04 11:00:11;;;;;;;8.65;3.83;;;8.20;95.50;;;;;;4986457;28;20046;-64
2023/04/04 11:02:54;;;;;;;7.75;3.63;;;8.30;97.60;;;;;;4993943;28;20444;-64
2023/04/04 11:05:33;;;;;;;9.02;3.70;;;8.40;97.10;;;;;;4995544;28;20046;-64
2023/04/04 11:08:04;;;;;;;5.90;3.22;;;8.60;97.00;;;;;;4992534;28;20996;-64
2023/04/04 11:10:30;;;;;;;7.13;3.67;;;8.80;96.00;;;;;;4987549;28;20041;-65
2023/04/04 11:13:06;;;;;;;6.72;3.75;;;8.70;95.00;;;;;;4995517;28;20034;-65
2023/04/04 11:16:03;;;;;;;5.25;3.00;;;8.90;96.10;;;;;;4975345;28;20070;-64
2023/04/04 11:18:41;;;;;;;12.35;3.38;;;8.90;92.60;;;;;;4968361;28;20477;-65
2023/04/04 11:21:23;;;;;;;5.18;3.50;;;8.90;92.10;;;;;;4989897;28;20042;-65
2023/04/04 11:24:00;;;;;;;6.97;3.33;;;9.00;94.30;;;;;;4994848;28;20038;-63
2023/04/04 11:26:29;;;;;;;9.57;3.70;;;9.10;95.80;;;;;;4986376;28;20120;-63
2023/04/04 11:29:03;;;;;;;5.32;3.38;;;9.10;95.80;;;;;;4977041;28;20046;-65
2023/04/04 11:31:33;;;;;;;6.57;3.30;;;9.10;94.80;;;;;;4994774;28;20042;-65
2023/04/04 11:34:06;;;;;;;7.07;3.10;;;9.30;95.50;;;;;;4967222;28;20047;-65
2023/04/04 11:36:38;;;;;;;7.78;3.38;;;9.40;93.10;;;;;;4969367;28;20049;-64
2023/04/04 11:39:14;;;;;;;13.90;3.97;;;9.50;94.10;;;;;;4995230;28;20132;-65
2023/04/04 11:42:07;;;;;;;12.30;3.25;;;9.60;93.30;;;;;;4986677;28;20051;-64
2023/04/04 11:44:38;;;;;;;7.13;2.95;;;9.70;91.30;;;;;;4970319;28;20089;-65
2023/04/04 11:47:08;;;;;;;;;;;9.70;93.20;;;;;;4995115;28;20053;-64
2023/04/04 11:49:38;;;;;;;6.00;3.20;;;9.60;87.00;;;;;;4988722;28;19953;-65
2023/04/04 11:52:12;;;;;;;7.43;3.50;;;9.70;92.70;;;;;;4992671;28;20097;-65
2023/04/04 11:54:39;;;;;;;6.55;3.10;;;9.80;91.40;;;;;;4987646;28;20034;-64
2023/04/04 11:57:06;;;;;;;4.30;2.88;;;9.80;94.10;;;;;;4995362;28;20047;-65
2023/04/04 11:59:32;;;;;;;6.32;3.15;;;9.80;94.00;;;;;;4985623;28;20043;-64
2023/04/04 12:01:59;;;;;;;5.55;3.05;;;9.90;93.40;;;;;;4989819;28;20042;-63
2023/04/04 12:04:25;;;;;;;7.30;3.22;;;10.00;93.20;;;;;;4994479;28;20400;-63
2023/04/04 12:06:53;;;;;;;9.52;3.33;;;10.10;90.60;;;;;;4985868;28;20440;-64
2023/04/04 12:09:22;;;;;;;8.57;3.50;;;10.30;92.60;;;;;;4972651;28;20030;-64
2023/04/04 12:11:49;;;;;;;7.00;2.95;;;10.50;93.60;;;;;;4994385;28;20412;-63
2023/04/04 12:14:17;;;;;;;7.50;3.28;;;10.50;89.90;;;;;;4990656;28;20053;-65
2023/04/04 12:16:43;;;;;;;7.18;3.15;;;10.60;90.40;;;;;;4991656;28;20065;-65
2023/04/04 12:19:10;;;;;;;8.15;3.08;;;10.70;92.30;;;;;;4993915;28;20038;-65
2023/04/04 12:21:36;;;;;;;13.82;3.40;;;10.70;91.60;;;;;;4994441;28;20098;-65
2023/04/04 12:24:01;;;;;;;6.13;3.38;;;10.80;91.90;;;;;;4975601;28;20125;-64
2023/04/04 12:26:28;;;;;;;5.63;3.10;;;10.80;91.40;;;;;;4970943;28;20489;-64
2023/04/04 12:28:56;;;;;;;5.75;3.10;;;10.90;91.20;;;;;;4993585;28;20117;-65
2023/04/04 12:31:26;;;;;;;4.10;2.40;;;11.00;92.10;;;;;;4963959;28;20156;-64
2023/04/04 12:33:52;;;;;;;4.82;3.15;;;10.90;90.40;;;;;;4985691;28;20092;-64
2023/04/04 12:36:18;;;;;;;5.53;2.78;;;10.90;91.30;;;;;;4989490;28;20125;-64
2023/04/04 12:39:01;;;;;;;6.05;3.00;;;10.80;90.60;;;;;;4992695;28;20035;-64
2023/04/04 12:41:27;;;;;;;5.50;2.63;;;11.00;85.70;;;;;;4983526;28;20042;-64
2023/04/04 12:44:01;;;;;;;5.93;3.08;;;11.10;90.80;;;;;;4970902;28;20042;-64
2023/04/04 12:46:27;;;;;;;6.05;3.20;;;11.00;77.90;;;;;;4994025;28;20034;-65
2023/04/04 12:48:54;;;;;;;7.90;3.20;;;10.90;88.70;;;;;;4957808;28;20042;-65
2023/04/04 12:51:19;;;;;;;8.25;3.20;;;10.90;89.30;;;;;;4975238;28;20065;-65